< < Back
Terminal Aerodrome Forecast


Current Version              Previous Versions:   1  2  3  4  5  6  7  8  9  

Terminal Aerodrome Forecast

674
FTUS42 KFFC 160900 AAA
TAFFTY
TAF AMD
KFTY 160942Z 1610/1706 VRB03KT 6SM BR OVC007
      TEMPO 1611/1615 5SM -RA BR BKN005
     FM161500 30006KT P6SM VCSH BKN015
     FM161700 33009KT P6SM SCT025 BKN040
     FM161900 33010KT P6SM SCT050 BKN100
     FM170200 35006KT P6SM SCT120 BKN250=

Latest METAR

525
SAUS70 KWBC 152100 RRX
MTRFTY
METAR KFTY 162053Z 34007KT 10SM FEW041 29/19 A2998 RMK AO2 SLP142
T02940194 58023


USA.gov is the U.S. government's official web portal to all federal, state and local government web resources and services.